Time;durP1;ratioP1;P1;durP2;ratioP2;P2;SDS_P1;SDS_P2;PMS_P1;PMS_P2;Temp;Humidity;BMP_temperature;BMP_pressure;BME280_temperature;BME280_humidity;BME280_pressure;Samples;Min_cycle;Max_cycle;Signal;HPM_P1;HPM_P2
2023/04/02 00:02:19;;;;;;;18.67;14.15;;;9.20;99.90;;;;;;4996157;28;20037;-62
2023/04/02 00:05:18;;;;;;;20.98;15.05;;;9.00;99.90;;;;;;4994812;28;20137;-61
2023/04/02 00:07:49;;;;;;;18.38;13.32;;;9.10;99.90;;;;;;4996176;28;20030;-62
2023/04/02 00:10:25;;;;;;;17.10;13.20;;;9.10;99.90;;;;;;4996085;28;20488;-61
2023/04/02 00:13:18;;;;;;;15.45;11.90;;;9.10;99.90;;;;;;4996228;28;20045;-61
2023/04/02 00:15:50;;;;;;;24.23;15.75;;;9.20;99.90;;;;;;4995901;28;20041;-61
2023/04/02 00:18:18;;;;;;;19.45;14.63;;;9.10;99.90;;;;;;4996231;28;20030;-61
2023/04/02 00:21:05;;;;;;;20.95;14.95;;;9.10;99.90;;;;;;4995784;28;20033;-62
2023/04/02 00:23:30;;;;;;;15.32;11.73;;;8.90;99.90;;;;;;4996127;28;20031;-62
2023/04/02 00:25:56;;;;;;;16.63;12.48;;;8.90;99.90;;;;;;4995823;28;20509;-61
2023/04/02 00:28:23;;;;;;;15.95;11.32;;;8.90;99.90;;;;;;4995901;28;20026;-62
2023/04/02 00:30:58;;;;;;;13.30;10.63;;;9.00;99.90;;;;;;4995756;28;20022;-62
2023/04/02 00:33:29;;;;;;;12.90;9.82;;;9.00;99.90;;;;;;4995640;28;20109;-62
2023/04/02 00:35:55;;;;;;;13.88;10.65;;;9.00;99.90;;;;;;4995439;28;20030;-62
2023/04/02 00:38:28;;;;;;;13.00;11.30;;;9.00;99.90;;;;;;4995571;28;20026;-61
2023/04/02 00:40:57;;;;;;;13.47;11.17;;;8.90;99.90;;;;;;4995458;28;20029;-62
2023/04/02 00:43:29;;;;;;;14.95;12.40;;;8.90;99.90;;;;;;4995541;28;20255;-62
2023/04/02 00:46:12;;;;;;;21.15;16.42;;;8.90;99.90;;;;;;4995618;28;20035;-62
2023/04/02 00:49:08;;;;;;;20.95;15.10;;;8.80;99.90;;;;;;4995374;28;20464;-61
2023/04/02 00:51:52;;;;;;;20.45;15.30;;;8.70;99.90;;;;;;4994356;28;20121;-62
2023/04/02 00:54:21;;;;;;;15.95;14.25;;;8.60;99.90;;;;;;4995509;28;20385;-61
2023/04/02 00:56:50;;;;;;;15.50;12.55;;;8.60;99.90;;;;;;4995140;28;20477;-61
2023/04/02 00:59:35;;;;;;;14.73;11.77;;;8.60;99.90;;;;;;4995163;28;20034;-61
2023/04/02 01:02:13;;;;;;;12.65;10.30;;;8.60;99.90;;;;;;4995027;28;20014;-61
2023/04/02 01:04:40;;;;;;;12.55;10.27;;;8.70;99.90;;;;;;4994611;28;20042;-60
2023/04/02 01:07:10;;;;;;;10.70;9.40;;;8.70;99.90;;;;;;4995218;28;20026;-61
2023/04/02 01:10:26;;;;;;;10.68;9.40;;;8.60;99.90;;;;;;4993695;28;20432;-62
2023/04/02 01:13:15;;;;;;;11.88;9.02;;;8.60;99.90;;;;;;4981899;28;20050;-62
2023/04/02 01:15:50;;;;;;;11.88;8.40;;;8.60;99.90;;;;;;4994616;28;20027;-61
2023/04/02 01:18:30;;;;;;;11.02;8.10;;;8.60;99.90;;;;;;4994587;28;20109;-61
2023/04/02 01:21:04;;;;;;;8.40;7.25;;;8.60;99.90;;;;;;4994643;28;20027;-62
2023/04/02 01:24:00;;;;;;;8.95;7.05;;;8.60;99.90;;;;;;4994677;28;20049;-62
2023/04/02 01:26:50;;;;;;;8.25;7.38;;;8.50;99.90;;;;;;4994761;28;20041;-62
2023/04/02 01:29:18;;;;;;;5.93;5.32;;;8.50;99.90;;;;;;4994372;28;20080;-61
2023/04/02 01:31:45;;;;;;;7.65;6.75;;;8.50;99.90;;;;;;4994950;28;20421;-61
2023/04/02 01:34:15;;;;;;;10.38;7.97;;;8.60;99.90;;;;;;4994389;28;20524;-61
2023/04/02 01:37:02;;;;;;;8.32;6.38;;;8.50;99.90;;;;;;4994424;28;20389;-61
2023/04/02 01:40:04;;;;;;;7.05;6.15;;;8.40;99.90;;;;;;4994444;28;20033;-62
2023/04/02 01:42:55;;;;;;;6.82;5.57;;;8.40;99.90;;;;;;4934384;29;20031;-62
2023/04/02 01:45:22;;;;;;;7.68;5.60;;;8.40;99.90;;;;;;4992530;28;20060;-61
2023/04/02 01:47:49;;;;;;;10.23;7.50;;;8.40;99.90;;;;;;4994121;28;20070;-60
2023/04/02 01:50:30;;;;;;;8.63;7.07;;;8.30;99.90;;;;;;4994264;28;20018;-61
2023/04/02 01:53:02;;;;;;;13.90;9.98;;;8.30;99.90;;;;;;4994242;28;20026;-62
2023/04/02 01:55:38;;;;;;;12.30;10.57;;;8.30;99.90;;;;;;4994212;28;20030;-62
2023/04/02 01:58:05;;;;;;;9.80;8.63;;;8.30;99.90;;;;;;4994261;28;20023;-62
2023/04/02 02:00:33;;;;;;;12.63;9.75;;;8.30;99.90;;;;;;4994128;28;20026;-62
2023/04/02 02:03:01;;;;;;;11.30;9.40;;;8.30;99.90;;;;;;4993858;28;20085;-62
2023/04/02 02:05:28;;;;;;;11.63;9.13;;;8.30;99.90;;;;;;4993810;28;20047;-61
2023/04/02 02:07:56;;;;;;;11.25;9.57;;;8.30;99.90;;;;;;4994069;28;20466;-60
2023/04/02 02:10:33;;;;;;;9.13;7.70;;;8.20;99.90;;;;;;4994195;28;20022;-61
2023/04/02 02:12:59;;;;;;;7.57;6.65;;;8.20;99.90;;;;;;4993937;28;20022;-60
2023/04/02 02:15:26;;;;;;;7.47;6.70;;;8.20;99.90;;;;;;4994045;28;20097;-60
2023/04/02 02:18:02;;;;;;;9.27;7.68;;;8.20;99.90;;;;;;4993955;28;20044;-61
2023/04/02 02:20:28;;;;;;;10.40;8.25;;;8.20;99.90;;;;;;4994162;28;20022;-60
2023/04/02 02:22:56;;;;;;;9.00;6.70;;;8.00;99.90;;;;;;4993884;28;20023;-61
2023/04/02 02:25:26;;;;;;;8.77;7.60;;;7.80;99.90;;;;;;4993830;28;20152;-60
2023/04/02 02:28:30;;;;;;;10.68;8.02;;;7.80;99.90;;;;;;4994088;28;20029;-59
2023/04/02 02:31:06;;;;;;;8.05;6.45;;;7.70;99.90;;;;;;4997829;28;20028;-60
2023/04/02 02:33:39;;;;;;;7.00;6.05;;;7.70;99.90;;;;;;4997757;28;20473;-61
2023/04/02 02:36:12;;;;;;;7.68;5.57;;;7.70;99.90;;;;;;4998271;28;20026;-60
2023/04/02 02:38:38;;;;;;;7.60;6.35;;;7.80;99.90;;;;;;4997773;28;20029;-61
2023/04/02 02:41:11;;;;;;;7.57;6.25;;;7.90;99.90;;;;;;4997601;28;20026;-61
2023/04/02 02:43:40;;;;;;;9.20;7.28;;;7.90;99.90;;;;;;4997673;28;20031;-61
2023/04/02 02:46:10;;;;;;;9.93;7.07;;;7.90;99.90;;;;;;4997519;28;20042;-61
2023/04/02 02:48:38;;;;;;;8.80;7.05;;;7.80;99.90;;;;;;4997721;28;20223;-61
2023/04/02 02:51:08;;;;;;;6.45;5.32;;;7.70;99.90;;;;;;4997487;28;20022;-60
2023/04/02 02:53:47;;;;;;;7.65;5.32;;;7.70;99.90;;;;;;4997608;28;20031;-60
2023/04/02 02:56:13;;;;;;;5.90;4.93;;;7.80;99.90;;;;;;4997450;28;20026;-61
2023/04/02 02:58:39;;;;;;;9.85;6.65;;;7.90;99.90;;;;;;4997660;28;20053;-61
2023/04/02 03:01:05;;;;;;;9.80;7.78;;;7.80;99.90;;;;;;4997185;28;20027;-61
2023/04/02 03:03:32;;;;;;;9.95;7.13;;;7.80;99.90;;;;;;4997572;28;20018;-61
2023/04/02 03:06:08;;;;;;;10.40;8.68;;;7.70;99.90;;;;;;4997425;28;20042;-61
2023/04/02 03:08:57;;;;;;;10.10;7.68;;;7.60;99.90;;;;;;4997230;28;20385;-61
2023/04/02 03:11:53;;;;;;;8.05;6.32;;;7.60;99.90;;;;;;4966831;28;20385;-61
2023/04/02 03:14:39;;;;;;;7.57;6.10;;;7.60;99.90;;;;;;4997067;28;20568;-60
2023/04/02 03:17:38;;;;;;;7.97;6.20;;;7.60;99.90;;;;;;4997005;28;20105;-61
2023/04/02 03:20:15;;;;;;;9.35;6.93;;;7.60;99.90;;;;;;4997305;28;20030;-60
2023/04/02 03:22:51;;;;;;;7.35;5.72;;;7.60;99.90;;;;;;4997214;28;20058;-60
2023/04/02 03:25:42;;;;;;;6.90;5.30;;;7.50;99.90;;;;;;4997022;28;20074;-61
2023/04/02 03:28:16;;;;;;;7.72;5.72;;;7.50;99.90;;;;;;4996823;28;20033;-60
2023/04/02 03:30:41;;;;;;;6.75;5.60;;;7.50;99.90;;;;;;4996883;28;20030;-61
2023/04/02 03:33:20;;;;;;;9.50;7.70;;;7.50;99.90;;;;;;4996816;28;20496;-61
2023/04/02 03:35:53;;;;;;;12.55;9.50;;;7.40;99.90;;;;;;4996889;28;20081;-60
2023/04/02 03:38:24;;;;;;;11.15;8.23;;;7.40;99.90;;;;;;4996927;28;20080;-59
2023/04/02 03:41:11;;;;;;;10.60;8.60;;;7.20;99.90;;;;;;4996245;28;20113;-59
2023/04/02 03:43:45;;;;;;;8.10;7.13;;;7.10;99.90;;;;;;4996607;28;20050;-60
2023/04/02 03:46:23;;;;;;;7.55;6.07;;;7.10;99.90;;;;;;4996462;28;20037;-61
2023/04/02 03:48:54;;;;;;;8.05;6.35;;;7.10;99.90;;;;;;4996573;28;20113;-60
2023/04/02 03:51:29;;;;;;;11.57;8.50;;;7.30;99.90;;;;;;4996390;28;20026;-60
2023/04/02 03:53:55;;;;;;;8.00;6.65;;;7.30;99.90;;;;;;4996387;28;20036;-60
2023/04/02 03:56:39;;;;;;;8.25;6.00;;;7.20;99.90;;;;;;4996600;28;20061;-61
2023/04/02 03:59:10;;;;;;;8.50;6.35;;;7.20;99.90;;;;;;4996231;28;20511;-61
2023/04/02 04:01:58;;;;;;;7.82;6.38;;;7.30;99.90;;;;;;4996198;28;20030;-60
2023/04/02 04:04:27;;;;;;;6.80;5.65;;;7.30;99.90;;;;;;4995949;28;20049;-60
2023/04/02 04:06:56;;;;;;;8.70;6.03;;;7.30;99.90;;;;;;4996264;28;20030;-60
2023/04/02 04:09:32;;;;;;;7.47;6.32;;;7.30;99.90;;;;;;4996084;28;20037;-61
2023/04/02 04:12:25;;;;;;;6.22;5.60;;;7.30;99.90;;;;;;4996148;28;20022;-61
2023/04/02 04:15:07;;;;;;;5.63;4.82;;;7.30;99.90;;;;;;4995754;28;20412;-60
2023/04/02 04:18:09;;;;;;;5.85;4.80;;;7.40;99.90;;;;;;4996000;28;20077;-61
2023/04/02 04:20:55;;;;;;;5.95;5.13;;;7.40;99.90;;;;;;4995857;28;20473;-61
2023/04/02 04:23:30;;;;;;;7.05;5.13;;;7.40;99.90;;;;;;4995824;28;20117;-61
2023/04/02 04:26:18;;;;;;;4.18;3.78;;;7.40;99.90;;;;;;4995745;28;20508;-61
2023/04/02 04:29:14;;;;;;;4.68;4.10;;;7.40;99.90;;;;;;4995539;28;20026;-60
2023/04/02 04:31:48;;;;;;;6.18;4.78;;;7.50;99.90;;;;;;4995921;28;20042;-60
2023/04/02 04:34:41;;;;;;;8.15;5.93;;;7.60;99.90;;;;;;4995718;28;20027;-61
2023/04/02 04:37:23;;;;;;;6.47;5.15;;;7.60;99.90;;;;;;4995697;28;20061;-60
2023/04/02 04:40:02;;;;;;;4.70;4.20;;;7.60;99.90;;;;;;4995506;28;20022;-59
2023/04/02 04:42:32;;;;;;;5.35;4.75;;;7.70;99.90;;;;;;4995266;28;20044;-61
2023/04/02 04:45:02;;;;;;;7.75;6.30;;;7.70;99.90;;;;;;4995416;28;20032;-60
2023/04/02 04:47:36;;;;;;;9.07;7.43;;;7.80;99.90;;;;;;4995302;28;20118;-60
2023/04/02 04:50:04;;;;;;;6.93;5.93;;;7.90;99.90;;;;;;4995651;28;20025;-60
2023/04/02 04:52:38;;;;;;;7.63;6.15;;;7.90;99.90;;;;;;4994750;28;20138;-60
2023/04/02 04:55:24;;;;;;;;;;;7.90;99.90;;;;;;4995686;28;20541;-61
2023/04/02 04:57:54;;;;;;;5.88;4.95;;;7.80;99.90;;;;;;4994777;28;19910;-61
2023/04/02 05:00:47;;;;;;;7.38;5.38;;;7.80;99.90;;;;;;4995156;28;20118;-60
2023/04/02 05:03:25;;;;;;;25.63;17.55;;;7.80;99.90;;;;;;4995239;28;20034;-59
2023/04/02 05:05:51;;;;;;;22.92;16.20;;;7.80;99.90;;;;;;4994801;28;20074;-60
2023/04/02 05:08:26;;;;;;;15.13;12.60;;;7.70;99.90;;;;;;4994898;28;20034;-60
2023/04/02 05:10:59;;;;;;;12.65;9.80;;;7.70;99.90;;;;;;4994836;28;20056;-60
2023/04/02 05:13:43;;;;;;;12.13;9.27;;;7.80;99.90;;;;;;4995034;28;20026;-60
2023/04/02 05:16:27;;;;;;;11.32;8.10;;;7.90;99.90;;;;;;4995086;28;20110;-61
2023/04/02 05:19:00;;;;;;;8.18;6.60;;;7.90;99.90;;;;;;4994680;28;20023;-61
2023/04/02 05:22:02;;;;;;;6.35;5.72;;;7.90;99.90;;;;;;4994886;28;20030;-61
2023/04/02 05:24:53;;;;;;;6.63;5.55;;;8.10;99.90;;;;;;4994622;28;20067;-59
2023/04/02 05:27:43;;;;;;;6.47;5.18;;;8.30;99.90;;;;;;4994382;28;20026;-60
2023/04/02 05:30:11;;;;;;;5.05;4.55;;;8.50;99.90;;;;;;4994508;28;20026;-61
2023/04/02 05:32:44;;;;;;;7.28;5.47;;;8.60;99.90;;;;;;4994424;28;20027;-61
2023/04/02 05:35:16;;;;;;;4.35;3.95;;;8.70;99.90;;;;;;4994548;28;20023;-61
2023/04/02 05:37:43;;;;;;;5.38;4.85;;;8.80;99.90;;;;;;4994437;28;20516;-61
2023/04/02 05:40:47;;;;;;;5.25;4.68;;;8.90;99.90;;;;;;4994526;28;20480;-61
2023/04/02 05:43:17;;;;;;;5.35;4.50;;;8.90;99.90;;;;;;4991558;28;20091;-61
2023/04/02 05:45:50;;;;;;;4.57;3.97;;;9.00;99.90;;;;;;4994279;28;20031;-60
2023/04/02 05:48:18;;;;;;;;;;;9.00;99.90;;;;;;4994883;28;20031;-61
2023/04/02 05:50:50;;;;;;;3.70;3.30;;;9.00;99.90;;;;;;4994319;28;19914;-60
2023/04/02 05:53:36;;;;;;;8.57;7.20;;;9.00;99.90;;;;;;4994309;28;20022;-62
2023/04/02 05:56:11;;;;;;;14.48;11.05;;;9.00;99.90;;;;;;4994323;28;20109;-61
2023/04/02 05:58:46;;;;;;;26.65;22.38;;;9.00;99.90;;;;;;4994200;28;20029;-62
2023/04/02 06:01:21;;;;;;;34.70;30.15;;;10.80;99.90;;;;;;4994083;28;20068;-61
2023/04/02 06:03:56;;;;;;;28.27;25.20;;;14.10;94.70;;;;;;4993867;28;20084;-60
2023/04/02 06:06:43;;;;;;;29.27;25.35;;;16.90;86.00;;;;;;4994093;28;20489;-61
2023/04/02 06:09:19;;;;;;;32.33;25.60;;;19.00;68.50;;;;;;4993827;28;20025;-61
2023/04/02 06:11:50;;;;;;;44.97;33.70;;;20.30;62.30;;;;;;4993994;28;20061;-61
2023/04/02 06:14:16;;;;;;;32.90;29.35;;;21.40;56.20;;;;;;4993844;28;20107;-61
2023/04/02 06:16:44;;;;;;;29.20;25.58;;;22.20;53.60;;;;;;4993884;28;20027;-61
2023/04/02 06:19:20;;;;;;;27.33;23.90;;;22.90;51.90;;;;;;4994189;28;20029;-61
2023/04/02 06:21:48;;;;;;;20.63;18.58;;;24.00;50.00;;;;;;4993868;28;20054;-61
2023/04/02 06:24:18;;;;;;;20.73;18.52;;;24.60;47.30;;;;;;4993573;28;20043;-61
2023/04/02 06:26:52;;;;;;;17.77;15.98;;;25.30;45.20;;;;;;4993840;28;20026;-60
2023/04/02 06:29:26;;;;;;;15.13;13.60;;;25.80;43.60;;;;;;4993729;28;20499;-60
2023/04/02 06:31:59;;;;;;;13.18;11.85;;;26.20;41.90;;;;;;4993864;28;20019;-61
2023/04/02 06:34:27;;;;;;;11.85;10.75;;;26.70;41.40;;;;;;4994014;28;20085;-61
2023/04/02 06:37:03;;;;;;;11.10;10.02;;;27.20;41.40;;;;;;4993761;28;20026;-60
2023/04/02 06:39:29;;;;;;;10.23;9.23;;;27.30;40.40;;;;;;4993612;28;20431;-61
2023/04/02 06:42:06;;;;;;;9.50;8.57;;;27.80;40.00;;;;;;4993606;28;20027;-61
2023/04/02 06:44:35;;;;;;;8.23;7.43;;;28.20;38.80;;;;;;4993600;28;20548;-62
2023/04/02 06:47:18;;;;;;;7.05;6.45;;;28.50;39.10;;;;;;4993705;28;20027;-61
2023/04/02 06:49:50;;;;;;;6.50;5.90;;;28.50;37.70;;;;;;4993639;28;20101;-62
2023/04/02 06:52:42;;;;;;;6.53;5.93;;;29.10;38.80;;;;;;4993677;28;20033;-61
2023/04/02 06:55:30;;;;;;;6.75;5.88;;;29.10;38.20;;;;;;4993602;28;20034;-61
2023/04/02 06:57:56;;;;;;;8.45;7.63;;;27.80;37.80;;;;;;4993601;28;20106;-61
2023/04/02 07:00:21;;;;;;;6.25;5.65;;;25.20;39.30;;;;;;4994079;28;20026;-62
2023/04/02 07:02:49;;;;;;;6.30;5.80;;;23.20;42.60;;;;;;4993513;28;20496;-61
2023/04/02 07:05:15;;;;;;;6.70;6.00;;;21.80;44.30;;;;;;4993266;28;20039;-61
2023/04/02 07:07:41;;;;;;;7.20;6.50;;;21.80;45.70;;;;;;4993332;28;20034;-62
2023/04/02 07:10:08;;;;;;;6.60;6.00;;;21.60;46.20;;;;;;4993646;28;20023;-61
2023/04/02 07:12:33;;;;;;;5.72;5.20;;;23.70;45.10;;;;;;4993269;28;20018;-60
2023/04/02 07:14:59;;;;;;;5.07;4.68;;;26.10;42.60;;;;;;4995234;28;20491;-62
2023/04/02 07:17:25;;;;;;;5.68;5.18;;;28.00;40.00;;;;;;4997065;28;20027;-61
2023/04/02 07:19:50;;;;;;;5.95;5.45;;;28.90;38.00;;;;;;4996958;28;20029;-62
2023/04/02 07:22:17;;;;;;;6.20;5.13;;;29.30;37.30;;;;;;4997004;28;20033;-60
2023/04/02 07:24:44;;;;;;;5.97;5.35;;;29.00;36.80;;;;;;4996806;28;20038;-60
2023/04/02 07:27:11;;;;;;;5.97;5.47;;;29.10;37.30;;;;;;4996745;28;20109;-60
2023/04/02 07:29:41;;;;;;;5.53;5.03;;;29.30;36.10;;;;;;4996832;28;20018;-61
2023/04/02 07:32:08;;;;;;;5.50;5.00;;;29.30;37.80;;;;;;4996858;28;20105;-62
2023/04/02 07:34:34;;;;;;;5.03;4.60;;;29.70;37.20;;;;;;4996686;28;20026;-61
2023/04/02 07:37:01;;;;;;;6.00;5.22;;;30.30;36.10;;;;;;4996608;28;20073;-61
2023/04/02 07:39:27;;;;;;;4.38;4.07;;;31.10;35.00;;;;;;4996907;28;20117;-61
2023/04/02 07:41:58;;;;;;;4.38;3.97;;;32.00;34.90;;;;;;4996507;28;20109;-61
2023/04/02 07:44:23;;;;;;;5.20;4.70;;;32.50;33.70;;;;;;4996924;28;20026;-61
2023/04/02 07:46:49;;;;;;;5.25;4.75;;;32.90;32.70;;;;;;4996514;28;20022;-60
2023/04/02 07:49:15;;;;;;;5.75;4.88;;;32.70;32.50;;;;;;4996435;28;20022;-61
2023/04/02 07:51:41;;;;;;;5.35;4.90;;;32.60;33.60;;;;;;4996301;28;20029;-62
2023/04/02 07:54:09;;;;;;;4.90;4.50;;;32.30;32.90;;;;;;4996487;28;20022;-61
2023/04/02 07:56:35;;;;;;;4.40;4.00;;;32.40;32.70;;;;;;4996258;28;20033;-61
2023/04/02 07:59:01;;;;;;;3.80;3.50;;;32.70;33.80;;;;;;4996631;28;20093;-60
2023/04/02 08:01:28;;;;;;;4.07;3.72;;;33.10;32.00;;;;;;4996366;28;20112;-62
2023/04/02 08:03:55;;;;;;;4.28;3.88;;;33.80;31.50;;;;;;4996088;28;20070;-61
2023/04/02 08:06:22;;;;;;;4.60;4.20;;;33.80;31.90;;;;;;4995944;28;20037;-62
2023/04/02 08:08:49;;;;;;;4.70;4.32;;;34.00;30.50;;;;;;4996135;28;20023;-61
2023/04/02 08:11:15;;;;;;;4.50;4.10;;;33.40;31.30;;;;;;4996074;28;20428;-61
2023/04/02 08:13:41;;;;;;;4.85;4.35;;;33.80;31.00;;;;;;4995936;28;20102;-61
2023/04/02 08:16:07;;;;;;;6.00;4.85;;;33.90;31.70;;;;;;4995947;28;20093;-60
2023/04/02 08:18:34;;;;;;;7.57;6.88;;;33.70;31.80;;;;;;4995972;28;20539;-61
2023/04/02 08:21:00;;;;;;;7.15;6.47;;;32.80;32.30;;;;;;4995718;28;20381;-61
2023/04/02 08:23:26;;;;;;;7.07;6.38;;;32.40;32.40;;;;;;4995839;28;20022;-61
2023/04/02 08:25:53;;;;;;;5.75;5.25;;;31.70;34.00;;;;;;4994952;28;20041;-61
2023/04/02 08:28:20;;;;;;;6.45;5.22;;;32.00;34.90;;;;;;4995690;28;20077;-61
2023/04/02 08:30:47;;;;;;;4.85;4.43;;;32.00;33.30;;;;;;4995728;28;20034;-61
2023/04/02 08:33:14;;;;;;;4.80;4.40;;;31.70;33.10;;;;;;4995742;28;20022;-61
2023/04/02 08:35:40;;;;;;;4.22;3.80;;;31.70;34.00;;;;;;4995627;28;20362;-62
2023/04/02 08:38:06;;;;;;;4.13;3.72;;;31.10;34.00;;;;;;4995871;28;20053;-61
2023/04/02 08:40:44;;;;;;;3.33;3.13;;;30.60;34.20;;;;;;4995591;28;20105;-62
2023/04/02 08:43:24;;;;;;;3.83;3.53;;;30.00;35.50;;;;;;4995466;28;20085;-62
2023/04/02 08:46:27;;;;;;;3.40;3.10;;;30.00;34.50;;;;;;4995448;28;20065;-61
2023/04/02 08:48:54;;;;;;;;;;;29.90;33.80;;;;;;4992678;28;20042;-62
2023/04/02 08:51:27;;;;;;;3.63;3.03;;;30.00;34.70;;;;;;4995296;28;19906;-60
2023/04/02 08:54:02;;;;;;;3.47;3.17;;;30.10;33.60;;;;;;4995265;28;20034;-62
2023/04/02 08:56:43;;;;;;;3.15;2.88;;;30.30;34.50;;;;;;4995329;28;20030;-62
2023/04/02 08:59:23;;;;;;;2.80;2.60;;;30.00;34.20;;;;;;4995263;28;20030;-60
2023/04/02 09:02:13;;;;;;;2.90;2.45;;;29.80;35.20;;;;;;4995019;28;20034;-62
2023/04/02 09:04:40;;;;;;;2.70;2.50;;;29.60;33.50;;;;;;4994588;28;20049;-61
2023/04/02 09:07:13;;;;;;;2.60;2.40;;;29.50;34.40;;;;;;4994964;28;20073;-62
2023/04/02 09:09:39;;;;;;;2.72;2.13;;;29.30;33.20;;;;;;4994988;28;20121;-62
2023/04/02 09:12:06;;;;;;;1.90;1.80;;;29.30;35.00;;;;;;4995115;28;20097;-62
2023/04/02 09:14:44;;;;;;;2.08;1.98;;;28.90;36.80;;;;;;4994997;28;20061;-62
2023/04/02 09:17:15;;;;;;;1.98;1.88;;;28.60;36.20;;;;;;4995125;28;20061;-61
2023/04/02 09:19:45;;;;;;;1.65;1.55;;;28.30;36.00;;;;;;4994526;28;20081;-60
2023/04/02 09:22:28;;;;;;;1.23;1.10;;;28.30;33.90;;;;;;4995012;28;20018;-61
2023/04/02 09:24:59;;;;;;;1.10;1.00;;;27.50;32.80;;;;;;4994631;28;20481;-62
2023/04/02 09:27:30;;;;;;;1.40;1.30;;;27.10;37.90;;;;;;4995056;28;20023;-61
2023/04/02 09:30:20;;;;;;;1.05;1.02;;;27.10;37.30;;;;;;4994629;28;20034;-61
2023/04/02 09:32:53;;;;;;;1.17;0.90;;;27.00;35.00;;;;;;4994388;28;20031;-62
2023/04/02 09:35:25;;;;;;;0.60;0.60;;;27.10;36.30;;;;;;4994533;28;20061;-61
2023/04/02 09:38:09;;;;;;;0.75;0.60;;;27.10;35.20;;;;;;4994162;28;20026;-62
2023/04/02 09:40:53;;;;;;;0.50;0.50;;;27.20;34.70;;;;;;4994492;28;20022;-63
2023/04/02 09:43:23;;;;;;;0.65;0.50;;;27.40;32.90;;;;;;4994367;28;20092;-60
2023/04/02 09:46:24;;;;;;;0.40;0.40;;;27.10;32.40;;;;;;4994296;28;20037;-62
2023/04/02 09:48:55;;;;;;;0.50;0.50;;;26.80;32.50;;;;;;4994401;28;20026;-61
2023/04/02 09:51:28;;;;;;;0.57;0.50;;;26.70;32.90;;;;;;4994146;28;20057;-62
2023/04/02 09:54:03;;;;;;;0.60;0.50;;;27.10;34.70;;;;;;4994246;28;20018;-61
2023/04/02 09:56:30;;;;;;;0.73;0.65;;;27.20;32.70;;;;;;4994195;28;20030;-61
2023/04/02 09:59:14;;;;;;;0.65;0.40;;;27.70;32.10;;;;;;4994429;28;20031;-61
2023/04/02 10:01:44;;;;;;;0.60;0.60;;;27.70;31.90;;;;;;4993871;28;20058;-61
2023/04/02 10:04:34;;;;;;;0.45;0.45;;;27.70;33.50;;;;;;4993752;28;20054;-62
2023/04/02 10:07:00;;;;;;;0.80;0.70;;;27.60;35.40;;;;;;4994393;28;20109;-60
2023/04/02 10:09:37;;;;;;;0.60;0.60;;;27.40;33.90;;;;;;4993983;28;20479;-61
2023/04/02 10:12:12;;;;;;;0.70;0.70;;;27.70;35.10;;;;;;4994109;28;20019;-61
2023/04/02 10:14:44;;;;;;;0.70;0.70;;;27.20;32.40;;;;;;4994090;28;20029;-60
2023/04/02 10:17:21;;;;;;;0.70;0.70;;;27.20;33.40;;;;;;4994088;28;20031;-61
2023/04/02 10:19:52;;;;;;;0.63;0.60;;;27.30;34.70;;;;;;4994105;28;20248;-60
2023/04/02 10:22:21;;;;;;;1.77;0.68;;;26.90;31.40;;;;;;4993883;28;20526;-60
2023/04/02 10:24:48;;;;;;;0.57;0.57;;;26.40;32.20;;;;;;4993766;28;20026;-61
2023/04/02 10:27:28;;;;;;;0.60;0.60;;;25.70;34.90;;;;;;4994055;28;20034;-61
2023/04/02 10:30:01;;;;;;;0.82;0.63;;;25.70;34.40;;;;;;4993986;28;20050;-61
2023/04/02 10:32:30;;;;;;;0.73;0.60;;;26.20;33.90;;;;;;4993553;28;20039;-61
2023/04/02 10:35:10;;;;;;;0.57;0.57;;;26.40;35.80;;;;;;4993827;28;20030;-61
2023/04/02 10:37:45;;;;;;;2.97;2.72;;;26.90;32.50;;;;;;4993660;28;20104;-61
2023/04/02 10:40:28;;;;;;;0.90;0.90;;;26.30;32.10;;;;;;4993764;28;20385;-60
2023/04/02 10:43:09;;;;;;;1.15;0.90;;;25.70;34.70;;;;;;4993982;28;20035;-62
2023/04/02 10:45:45;;;;;;;1.17;0.70;;;25.80;35.30;;;;;;4993348;28;20369;-62
2023/04/02 10:48:28;;;;;;;0.93;0.90;;;25.70;34.60;;;;;;4993619;28;20022;-61
2023/04/02 10:51:05;;;;;;;0.70;0.70;;;25.90;36.80;;;;;;4996899;28;20532;-60
2023/04/02 10:53:46;;;;;;;0.90;0.90;;;26.70;40.60;;;;;;4997712;28;20026;-61
2023/04/02 10:56:14;;;;;;;0.68;0.63;;;27.50;39.60;;;;;;4997524;28;20026;-60
2023/04/02 10:59:01;;;;;;;1.70;0.68;;;27.90;37.70;;;;;;4997378;28;20098;-61
2023/04/02 11:01:29;;;;;;;0.85;0.85;;;27.90;36.50;;;;;;4997182;28;20101;-62
2023/04/02 11:04:13;;;;;;;0.80;0.80;;;27.40;35.90;;;;;;4997061;28;20097;-62
2023/04/02 11:06:51;;;;;;;0.93;0.77;;;27.10;37.60;;;;;;4997540;28;20113;-61
2023/04/02 11:09:25;;;;;;;1.13;0.73;;;26.90;38.40;;;;;;4997184;28;20053;-60
2023/04/02 11:11:55;;;;;;;2.20;0.80;;;26.60;37.90;;;;;;4997581;28;20129;-61
2023/04/02 11:14:26;;;;;;;0.80;0.80;;;26.70;37.90;;;;;;4996999;28;20436;-62
2023/04/02 11:16:54;;;;;;;1.17;1.08;;;26.70;37.30;;;;;;4997264;28;20029;-63
2023/04/02 11:19:26;;;;;;;0.80;0.80;;;26.70;38.00;;;;;;4997016;28;20033;-61
2023/04/02 11:21:56;;;;;;;1.10;0.98;;;26.60;39.30;;;;;;4997000;28;20073;-61
2023/04/02 11:24:36;;;;;;;0.80;0.80;;;26.30;36.70;;;;;;4997044;28;20029;-62
2023/04/02 11:27:13;;;;;;;0.93;0.70;;;26.00;36.70;;;;;;4996925;28;20370;-62
2023/04/02 11:29:43;;;;;;;0.70;0.70;;;25.80;38.30;;;;;;4996694;28;20113;-61
2023/04/02 11:32:24;;;;;;;0.63;0.60;;;25.60;38.80;;;;;;4997122;28;20110;-61
2023/04/02 11:34:55;;;;;;;0.52;0.52;;;25.20;39.80;;;;;;4996803;28;20037;-61
2023/04/02 11:37:43;;;;;;;0.80;0.70;;;24.90;40.10;;;;;;4996883;28;20022;-62
2023/04/02 11:40:15;;;;;;;1.90;0.63;;;24.60;39.70;;;;;;4996992;28;20037;-60
2023/04/02 11:42:45;;;;;;;0.60;0.50;;;24.20;39.60;;;;;;4996550;28;20421;-62
2023/04/02 11:45:23;;;;;;;1.75;0.73;;;23.90;40.00;;;;;;4996484;28;20392;-60
2023/04/02 11:48:00;;;;;;;0.95;0.60;;;24.00;40.40;;;;;;4996593;28;20049;-62
2023/04/02 11:50:46;;;;;;;0.50;0.50;;;23.90;41.40;;;;;;4996401;28;20046;-61
2023/04/02 11:53:15;;;;;;;0.70;0.50;;;23.90;41.90;;;;;;4996187;28;20077;-60
2023/04/02 11:56:03;;;;;;;1.38;0.50;;;24.10;42.80;;;;;;4996349;28;20053;-61
2023/04/02 11:58:55;;;;;;;0.90;0.40;;;24.70;41.90;;;;;;4996138;28;20022;-62
2023/04/02 12:01:38;;;;;;;0.50;0.47;;;25.10;41.00;;;;;;4995715;28;20045;-60
2023/04/02 12:04:34;;;;;;;0.40;0.40;;;25.00;41.00;;;;;;4995765;28;20064;-60
2023/04/02 12:07:33;;;;;;;0.30;0.30;;;24.90;40.80;;;;;;4983716;28;20441;-62
2023/04/02 12:10:17;;;;;;;0.55;0.40;;;24.70;42.40;;;;;;4995021;28;20038;-60
2023/04/02 12:12:43;;;;;;;0.50;0.40;;;24.30;43.50;;;;;;4995074;28;20026;-61
2023/04/02 12:15:33;;;;;;;0.60;0.60;;;24.10;45.00;;;;;;4995086;28;20092;-61
2023/04/02 12:18:23;;;;;;;0.60;0.40;;;23.60;46.20;;;;;;4995011;28;20362;-62
2023/04/02 12:20:51;;;;;;;0.38;0.38;;;23.20;47.30;;;;;;4994887;28;20021;-61
2023/04/02 12:23:20;;;;;;;1.05;0.40;;;22.90;47.40;;;;;;4994842;28;20029;-60
2023/04/02 12:26:00;;;;;;;0.30;0.30;;;22.80;47.40;;;;;;4994844;28;20081;-61
2023/04/02 12:28:32;;;;;;;0.32;0.32;;;22.60;47.30;;;;;;4994669;28;20230;-60
2023/04/02 12:31:07;;;;;;;0.73;0.68;;;22.50;46.90;;;;;;4994722;28;20030;-60
2023/04/02 12:33:36;;;;;;;0.40;0.40;;;22.40;46.70;;;;;;4994640;28;20027;-61
2023/04/02 12:36:05;;;;;;;0.77;0.77;;;22.30;47.90;;;;;;4994744;28;20113;-60
2023/04/02 12:38:49;;;;;;;0.68;0.60;;;22.30;47.70;;;;;;4994709;28;20029;-61
2023/04/02 12:41:28;;;;;;;1.20;1.10;;;22.20;47.00;;;;;;4994446;28;20025;-61
2023/04/02 12:44:28;;;;;;;0.93;0.85;;;22.30;46.90;;;;;;4994427;28;20118;-61
2023/04/02 12:46:55;;;;;;;1.80;1.10;;;22.20;47.90;;;;;;4962461;28;20089;-60
2023/04/02 12:49:37;;;;;;;0.70;0.70;;;22.10;47.30;;;;;;4994444;28;20021;-61
2023/04/02 12:52:07;;;;;;;1.83;1.13;;;21.90;46.60;;;;;;4994555;28;20026;-61
2023/04/02 12:54:42;;;;;;;0.90;0.90;;;21.60;48.40;;;;;;4994286;28;20026;-61
2023/04/02 12:57:34;;;;;;;0.80;0.60;;;21.60;48.10;;;;;;4992955;28;20049;-61
2023/04/02 13:00:26;;;;;;;0.80;0.70;;;21.50;48.70;;;;;;4994560;28;20125;-60
2023/04/02 13:03:05;;;;;;;0.70;0.60;;;21.50;47.70;;;;;;4994089;28;20035;-62
2023/04/02 13:05:55;;;;;;;0.70;0.70;;;21.40;47.10;;;;;;4951587;28;1248653;-61
2023/04/02 13:08:36;;;;;;;1.67;0.80;;;21.10;46.60;;;;;;4995189;28;20451;-60
2023/04/02 13:11:04;;;;;;;1.00;0.70;;;21.30;49.30;;;;;;4995090;28;20350;-63
2023/04/02 13:13:36;;;;;;;0.52;0.52;;;21.60;46.60;;;;;;4994169;28;20474;-60
2023/04/02 13:16:23;;;;;;;0.40;0.40;;;21.90;48.10;;;;;;4993607;28;20026;-63
2023/04/02 13:18:50;;;;;;;2.08;0.60;;;22.30;47.40;;;;;;4989674;28;20047;-60
2023/04/02 13:21:15;;;;;;;0.52;0.50;;;22.40;45.20;;;;;;4993018;28;20034;-63
2023/04/02 13:23:41;;;;;;;0.68;0.55;;;22.30;45.40;;;;;;4992867;28;20037;-60
2023/04/02 13:26:19;;;;;;;1.38;1.27;;;22.20;43.60;;;;;;4993233;28;20022;-60
2023/04/02 13:29:14;;;;;;;0.80;0.80;;;21.90;43.50;;;;;;4993405;28;20376;-61
2023/04/02 13:31:40;;;;;;;1.15;0.82;;;21.70;44.00;;;;;;4993521;28;20069;-62